Карточка аэропорта URSS

Внимание!
Информация на этой странице в стадии наполнения.
Если вы не увидели какой-то информации, или заметили неточность - пожалуйста сообщите нам!
Спасибо!
Команда RU-STAFF
Название аэропортаСочи
Название аэропорта (англ.)Sochi
Превышение89 ft. (27.1 m.)
Координаты43°26.634', 39°56.55'
Высота перехода13000 ft
Эшелон переходаFL140 (QNH >= 1013); FL150 (QNH 977-1012); FL160 (QNH < 977)
Коды ответчика1060-1077
Зона ОрВДРостов-на-Дону РПИ (URRV)
Данные METARURSS 010600Z 04003MPS 9999 VCTS -SHRA SCT016 BKN034CB OVC080 06/02 Q1009 R02/010070 R06/010070 TEMPO -TSRA BKN030CB RMK R06/05001MPS MT OBSC QFE755
Проноз погоды (TAF)URSS 010455Z 0106/0206 04004G09MPS 9999 SCT016 BKN030CB OVC100 TEMPO 0106/0108 VRB06G12MPS -TSRA SCT010 BKN030CB OVC100 BECMG 0108/0109 18003G08MPS SCT016 BKN040CB OVC100 BECMG 0110/0111 28006G13MPS TEMPO 0111/0121 VRB08G14MPS 2500 -TSRA SCT006 BKN030CB OVC100 BECMG 0121/0122 05003G08MPS TEMPO 0121/0124 -SHRA
NOTAMshow/hide NOTAM
AWOS   TABLE

Информация о ВПП

ВПП Длина ВПП (м.) Покрытие Курс ВПП Частота ILS
062890Цементобетон58111.1
242890Цементобетон238 
022500Цементобетон22110.5
202500Цементобетон202 

Диспетчерские позиции

Позывной Наименование органа УВД Частота
URSS_APPСочи-Подход124.600
URSS_DELСочи-Деливери132.700
URSS_FM1119.000
URSS_GNDСочи-Руление119.000
URSS_R_APPСочи-Круг119.700
URSS_TWRСочи-Старт121.200



Спутниковое изображение